createdAt,value
2022-11-10T00:00:09.725Z,21.80
2022-11-10T00:02:56.163Z,21.70
2022-11-10T00:05:42.759Z,21.80
2022-11-10T00:08:29.440Z,21.80
2022-11-10T00:11:17.902Z,21.70
2022-11-10T00:14:21.538Z,21.80
2022-11-10T00:17:10.021Z,21.80
2022-11-10T00:19:56.900Z,21.70
2022-11-10T00:22:43.405Z,21.70
2022-11-10T00:25:29.877Z,21.70
2022-11-10T00:28:17.569Z,21.70
2022-11-10T00:31:07.256Z,21.70
2022-11-10T00:33:53.977Z,21.70
2022-11-10T00:36:41.228Z,21.70
2022-11-10T00:39:27.848Z,21.70
2022-11-10T00:42:14.390Z,21.70
2022-11-10T00:45:02.232Z,21.70
2022-11-10T00:47:48.812Z,21.70
2022-11-10T00:50:35.404Z,21.70
2022-11-10T00:53:22.140Z,21.70
2022-11-10T00:56:09.179Z,21.70
2022-11-10T00:58:55.810Z,21.70
2022-11-10T01:01:44.035Z,21.70
2022-11-10T01:04:30.680Z,21.70
2022-11-10T01:07:17.255Z,21.70
2022-11-10T01:10:04.176Z,21.70
2022-11-10T01:12:50.872Z,21.70
2022-11-10T01:15:40.852Z,21.70
2022-11-10T01:18:28.889Z,21.70
2022-11-10T01:21:15.784Z,21.70
2022-11-10T01:24:02.308Z,21.70
2022-11-10T01:26:49.418Z,21.70
2022-11-10T01:29:35.939Z,21.70
2022-11-10T01:32:22.504Z,21.70
2022-11-10T01:35:11.129Z,21.70
2022-11-10T01:37:58.687Z,21.70
2022-11-10T01:40:45.207Z,21.70
2022-11-10T01:43:32.561Z,21.70
2022-11-10T01:46:19.286Z,21.70
2022-11-10T01:49:06.221Z,21.70
2022-11-10T01:51:58.642Z,21.70
2022-11-10T01:54:49.884Z,21.70
2022-11-10T01:57:37.010Z,21.70
2022-11-10T02:00:24.008Z,21.70
2022-11-10T02:03:14.451Z,21.70
2022-11-10T02:06:01.711Z,21.70
2022-11-10T02:08:50.979Z,21.70
2022-11-10T02:11:38.614Z,21.60
2022-11-10T02:14:25.432Z,21.60
2022-11-10T02:17:12.206Z,21.70
2022-11-10T02:20:00.912Z,21.60
2022-11-10T02:22:48.996Z,21.60
2022-11-10T02:25:36.157Z,21.60
2022-11-10T02:28:22.945Z,21.60
2022-11-10T02:31:09.672Z,21.60
2022-11-10T02:33:56.206Z,21.60
2022-11-10T02:36:42.728Z,21.60
2022-11-10T02:39:30.561Z,21.60
2022-11-10T02:42:17.231Z,21.60
2022-11-10T02:45:03.898Z,21.60
2022-11-10T02:47:50.374Z,21.60
2022-11-10T02:50:36.887Z,21.60
2022-11-10T02:53:23.754Z,21.60
2022-11-10T02:56:11.942Z,21.60
2022-11-10T02:58:58.875Z,21.60
2022-11-10T03:01:45.681Z,21.60
2022-11-10T03:04:32.036Z,21.60
2022-11-10T03:07:18.605Z,21.60
2022-11-10T03:10:06.150Z,21.60
2022-11-10T03:12:57.209Z,21.60
2022-11-10T03:15:43.463Z,21.60
2022-11-10T03:18:29.882Z,21.60
2022-11-10T03:21:16.512Z,21.60
2022-11-10T03:24:03.119Z,21.60
2022-11-10T03:26:49.608Z,21.60
2022-11-10T03:29:37.680Z,21.60
2022-11-10T03:32:24.438Z,21.60
2022-11-10T03:35:10.975Z,21.60
2022-11-10T03:37:57.822Z,21.60
2022-11-10T03:41:16.980Z,21.60
2022-11-10T03:43:51.110Z,21.60
2022-11-10T03:46:42.844Z,21.60
2022-11-10T03:49:30.432Z,21.60
2022-11-10T03:52:17.241Z,21.60
2022-11-10T03:55:03.871Z,21.60
2022-11-10T03:57:50.519Z,21.60
2022-11-10T04:00:37.108Z,21.60
2022-11-10T04:03:25.979Z,21.60
2022-11-10T04:06:30.409Z,21.60
2022-11-10T04:09:17.131Z,21.60
2022-11-10T04:12:24.851Z,21.60
2022-11-10T04:15:44.965Z,21.60
2022-11-10T04:18:33.074Z,21.60
2022-11-10T04:21:19.806Z,21.60
2022-11-10T04:24:07.185Z,21.60
2022-11-10T04:26:53.705Z,21.50
2022-11-10T04:29:40.103Z,21.50
2022-11-10T04:32:26.816Z,21.60
2022-11-10T04:35:14.917Z,21.50
2022-11-10T04:38:01.617Z,21.50
2022-11-10T04:40:48.366Z,21.50
2022-11-10T04:43:35.269Z,21.50
2022-11-10T04:46:26.477Z,21.50
2022-11-10T04:49:13.117Z,21.50
2022-11-10T04:52:01.067Z,21.50
2022-11-10T04:54:47.844Z,21.50
2022-11-10T04:57:34.375Z,21.50
2022-11-10T05:00:21.311Z,21.50
2022-11-10T05:03:10.707Z,21.50
2022-11-10T05:05:57.270Z,21.50
2022-11-10T05:08:45.467Z,21.50
2022-11-10T05:11:32.154Z,21.50
2022-11-10T05:14:18.832Z,21.50
2022-11-10T05:17:05.312Z,21.50
2022-11-10T05:19:52.634Z,21.50
2022-11-10T05:22:39.384Z,21.40
2022-11-10T05:25:27.123Z,21.40
2022-11-10T05:28:14.093Z,21.40
2022-11-10T05:31:01.051Z,21.40
2022-11-10T05:33:47.730Z,21.40
2022-11-10T05:36:34.176Z,21.40
2022-11-10T05:39:20.680Z,21.40
2022-11-10T05:42:08.537Z,21.40
2022-11-10T05:44:54.948Z,21.40
2022-11-10T05:47:41.924Z,21.40
2022-11-10T05:50:28.592Z,21.40
2022-11-10T05:53:15.244Z,21.40
2022-11-10T05:56:01.696Z,21.40
2022-11-10T05:58:49.750Z,21.40
2022-11-10T06:01:36.514Z,21.40
2022-11-10T06:04:23.135Z,21.40
2022-11-10T06:07:10.021Z,21.40
2022-11-10T06:09:56.745Z,21.40
2022-11-10T06:12:43.268Z,21.40
2022-11-10T06:15:31.319Z,21.40
2022-11-10T06:18:18.075Z,21.40
2022-11-10T06:21:04.548Z,21.40
2022-11-10T06:23:51.020Z,21.30
2022-11-10T06:26:37.370Z,21.30
2022-11-10T06:29:26.801Z,21.30
2022-11-10T06:32:15.522Z,21.30
2022-11-10T06:35:02.305Z,21.30
2022-11-10T06:37:58.218Z,21.30
2022-11-10T06:40:44.665Z,21.30
2022-11-10T06:43:31.228Z,21.30
2022-11-10T06:46:17.718Z,21.30
2022-11-10T06:49:06.006Z,21.30
2022-11-10T06:51:53.402Z,21.30
2022-11-10T06:54:40.070Z,21.30
2022-11-10T06:57:26.450Z,21.30
2022-11-10T07:00:14.138Z,21.30
2022-11-10T07:03:04.443Z,21.30
2022-11-10T07:05:52.609Z,21.30
2022-11-10T07:08:39.513Z,21.30
2022-11-10T07:11:26.055Z,21.30
2022-11-10T07:14:12.519Z,21.40
2022-11-10T07:16:59.330Z,21.40
2022-11-10T07:19:45.860Z,21.50
2022-11-10T07:22:33.644Z,21.50
2022-11-10T07:25:20.418Z,21.50
2022-11-10T07:28:10.399Z,21.60
2022-11-10T07:30:56.926Z,21.60
2022-11-10T07:33:44.109Z,21.60
2022-11-10T07:36:30.781Z,21.70
2022-11-10T07:39:18.797Z,21.70
2022-11-10T07:42:05.412Z,21.70
2022-11-10T07:44:52.218Z,21.70
2022-11-10T07:47:38.577Z,21.80
2022-11-10T07:50:25.041Z,21.80
2022-11-10T07:53:13.733Z,21.80
2022-11-10T07:56:01.548Z,21.80
2022-11-10T07:58:48.644Z,21.90
2022-11-10T08:01:35.632Z,21.90
2022-11-10T08:04:22.523Z,21.90
2022-11-10T08:07:09.005Z,22.00
2022-11-10T08:09:56.044Z,22.00
2022-11-10T08:12:43.877Z,22.00
2022-11-10T08:15:32.489Z,22.00
2022-11-10T08:18:21.100Z,22.00
2022-11-10T08:21:07.830Z,22.10
2022-11-10T08:23:54.360Z,22.10
2022-11-10T08:26:40.839Z,22.10
2022-11-10T08:29:28.740Z,22.10
2022-11-10T08:32:15.586Z,22.10
2022-11-10T08:35:02.177Z,22.20
2022-11-10T08:37:48.585Z,22.20
2022-11-10T08:40:35.058Z,22.20
2022-11-10T08:43:22.287Z,22.20
2022-11-10T08:46:10.434Z,22.20
2022-11-10T08:48:57.326Z,22.20
2022-11-10T08:51:43.749Z,22.20
2022-11-10T08:54:30.245Z,22.20
2022-11-10T08:57:16.789Z,22.20
2022-11-10T09:00:03.666Z,22.20
2022-11-10T09:02:51.252Z,22.20
2022-11-10T09:05:38.043Z,22.20
2022-11-10T09:08:24.877Z,22.20
2022-11-10T09:11:11.289Z,22.20
2022-11-10T09:13:57.797Z,22.20
2022-11-10T09:16:44.736Z,22.20
2022-11-10T09:19:32.872Z,22.30
2022-11-10T09:22:19.582Z,22.30
2022-11-10T09:25:06.970Z,22.30
2022-11-10T09:27:53.452Z,22.30
2022-11-10T09:30:39.932Z,22.30
2022-11-10T09:33:26.892Z,22.30
2022-11-10T09:36:15.047Z,22.30
2022-11-10T09:39:01.686Z,22.40
2022-11-10T09:41:48.269Z,22.40
2022-11-10T09:44:39.464Z,22.40
2022-11-10T09:47:56.286Z,22.50
2022-11-10T09:50:42.833Z,22.50
2022-11-10T09:53:36.342Z,22.50
2022-11-10T09:56:31.477Z,22.50
2022-11-10T09:59:25.801Z,22.60
2022-11-10T10:02:27.100Z,22.60
2022-11-10T10:05:47.272Z,22.60
2022-11-10T10:08:54.893Z,22.70
2022-11-10T10:11:55.129Z,22.80
2022-11-10T10:14:57.537Z,22.80
2022-11-10T10:17:53.967Z,22.90
2022-11-10T10:20:48.512Z,22.90
2022-11-10T10:24:07.811Z,23.00
2022-11-10T10:26:50.109Z,23.10
2022-11-10T10:29:41.310Z,23.20
2022-11-10T10:32:28.144Z,23.40
2022-11-10T10:35:15.850Z,23.50
2022-11-10T10:38:05.564Z,23.60
2022-11-10T10:40:59.435Z,23.80
2022-11-10T10:43:49.824Z,23.90
2022-11-10T10:46:46.108Z,24.00
2022-11-10T10:49:34.532Z,24.10
2022-11-10T10:52:24.999Z,24.20
2022-11-10T10:55:14.346Z,24.30
2022-11-10T10:58:04.688Z,24.30
2022-11-10T11:00:53.793Z,24.40
2022-11-10T11:03:43.791Z,24.40
2022-11-10T11:06:31.869Z,24.40
2022-11-10T11:09:20.911Z,24.40
2022-11-10T11:12:09.800Z,24.50
2022-11-10T11:15:14.879Z,24.60
2022-11-10T11:18:03.555Z,24.70
2022-11-10T11:20:57.620Z,24.70
2022-11-10T11:24:16.616Z,24.70
2022-11-10T11:27:06.207Z,24.70
2022-11-10T11:30:12.138Z,24.70
2022-11-10T11:33:19.087Z,24.70
2022-11-10T11:36:15.739Z,24.70
2022-11-10T11:39:12.750Z,24.80
2022-11-10T11:42:14.604Z,24.80
2022-11-10T11:45:16.720Z,24.90
2022-11-10T11:48:21.091Z,24.90
2022-11-10T11:51:16.816Z,24.90
2022-11-10T11:54:28.578Z,24.90
2022-11-10T11:57:28.063Z,25.00
2022-11-10T12:00:18.352Z,25.10
2022-11-10T12:03:33.966Z,25.10
2022-11-10T12:06:35.574Z,25.20
2022-11-10T12:09:28.835Z,25.20
2022-11-10T12:12:56.930Z,25.20
2022-11-10T12:15:54.353Z,25.30
2022-11-10T12:18:49.777Z,25.30
2022-11-10T12:21:45.013Z,25.30
2022-11-10T12:24:43.673Z,25.30
2022-11-10T12:27:34.430Z,25.30
2022-11-10T12:30:21.134Z,25.30
2022-11-10T12:33:19.287Z,25.30
2022-11-10T12:36:11.564Z,25.20
2022-11-10T12:39:04.158Z,25.20
2022-11-10T12:41:55.630Z,25.10
2022-11-10T12:44:55.464Z,25.10
2022-11-10T12:47:44.897Z,25.10
2022-11-10T12:50:46.212Z,25.10
2022-11-10T12:53:36.592Z,25.10
2022-11-10T12:56:28.177Z,25.20
2022-11-10T12:59:16.976Z,25.20
2022-11-10T13:02:17.598Z,25.20
2022-11-10T13:05:25.624Z,25.20
2022-11-10T13:08:32.904Z,25.20
2022-11-10T13:11:27.413Z,25.20
2022-11-10T13:14:24.737Z,25.20
2022-11-10T13:17:33.654Z,25.10
2022-11-10T13:20:51.686Z,25.10
2022-11-10T13:24:15.920Z,25.10
2022-11-10T13:27:05.330Z,25.10
2022-11-10T13:29:56.547Z,25.10
2022-11-10T13:32:43.374Z,25.10
2022-11-10T13:35:54.890Z,25.10
2022-11-10T13:38:42.743Z,25.20
2022-11-10T13:41:31.583Z,25.20
2022-11-10T13:44:25.232Z,25.20
2022-11-10T13:47:41.094Z,25.20
2022-11-10T13:50:51.091Z,25.20
2022-11-10T13:53:50.012Z,25.20
2022-11-10T13:57:02.090Z,25.20
2022-11-10T13:59:53.376Z,25.20
2022-11-10T14:03:02.998Z,25.10
2022-11-10T14:06:04.310Z,25.10
2022-11-10T14:08:55.869Z,25.00
2022-11-10T14:11:49.653Z,25.00
2022-11-10T14:14:47.207Z,25.00
2022-11-10T14:17:40.563Z,25.00
2022-11-10T14:20:31.790Z,25.00
2022-11-10T14:23:25.586Z,24.90
2022-11-10T14:26:22.970Z,24.90
2022-11-10T14:29:38.489Z,24.80
2022-11-10T14:32:26.182Z,24.80
2022-11-10T14:35:23.382Z,24.80
2022-11-10T14:38:21.321Z,24.80
2022-11-10T14:41:16.209Z,24.80
2022-11-10T14:44:04.549Z,24.80
2022-11-10T14:46:51.299Z,24.80
2022-11-10T14:49:37.839Z,24.70
2022-11-10T14:52:25.764Z,24.70
2022-11-10T14:55:18.543Z,24.70
2022-11-10T14:58:09.227Z,24.70
2022-11-10T15:00:56.154Z,24.70
2022-11-10T15:03:44.297Z,24.70
2022-11-10T15:06:32.110Z,24.70
2022-11-10T15:09:27.938Z,24.70
2022-11-10T15:12:23.182Z,24.70
2022-11-10T15:15:21.461Z,24.60
2022-11-10T15:18:24.111Z,24.60
2022-11-10T15:21:13.574Z,24.60
2022-11-10T15:24:04.013Z,24.60
2022-11-10T15:26:52.189Z,24.60
2022-11-10T15:29:38.974Z,24.70
2022-11-10T15:32:35.209Z,24.70
2022-11-10T15:35:30.812Z,24.70
2022-11-10T15:38:32.644Z,24.70
2022-11-10T15:41:27.365Z,24.70
2022-11-10T15:44:18.985Z,24.70
2022-11-10T15:47:07.815Z,24.70
2022-11-10T15:49:55.036Z,24.70
2022-11-10T15:52:41.860Z,24.60
2022-11-10T15:55:29.655Z,24.60
2022-11-10T15:58:17.938Z,24.60
2022-11-10T16:01:06.110Z,24.60
2022-11-10T16:03:53.186Z,24.60
2022-11-10T16:06:40.688Z,24.50
2022-11-10T16:09:27.796Z,24.50
2022-11-10T16:12:18.016Z,24.50
2022-11-10T16:15:05.178Z,24.50
2022-11-10T16:17:53.087Z,24.50
2022-11-10T16:20:39.915Z,24.50
2022-11-10T16:23:27.088Z,24.50
2022-11-10T16:26:15.469Z,24.40
2022-11-10T16:29:02.237Z,24.40
2022-11-10T16:31:52.356Z,24.40
2022-11-10T16:34:40.312Z,24.40
2022-11-10T16:37:28.235Z,24.40
2022-11-10T16:40:19.406Z,24.40
2022-11-10T16:43:05.939Z,24.40
2022-11-10T16:45:57.035Z,24.30
2022-11-10T16:48:46.114Z,24.20
2022-11-10T16:51:37.141Z,24.20
2022-11-10T16:54:23.661Z,24.20
2022-11-10T16:57:14.146Z,24.10
2022-11-10T17:00:00.828Z,24.10
2022-11-10T17:02:55.976Z,24.00
2022-11-10T17:05:43.057Z,24.00
2022-11-10T17:08:33.043Z,23.90
2022-11-10T17:11:19.765Z,23.90
2022-11-10T17:14:06.988Z,23.90
2022-11-10T17:16:55.597Z,23.90
2022-11-10T17:19:42.856Z,23.80
2022-11-10T17:22:34.433Z,23.80
2022-11-10T17:25:27.182Z,23.80
2022-11-10T17:28:14.997Z,23.80
2022-11-10T17:31:03.228Z,23.70
2022-11-10T17:33:49.909Z,23.70
2022-11-10T17:36:36.445Z,23.70
2022-11-10T17:39:23.584Z,23.70
2022-11-10T17:42:14.189Z,23.70
2022-11-10T17:45:00.711Z,23.60
2022-11-10T17:47:47.536Z,23.60
2022-11-10T17:50:34.824Z,23.60
2022-11-10T17:53:23.888Z,23.50
2022-11-10T17:56:10.812Z,23.50
2022-11-10T17:58:58.651Z,23.50
2022-11-10T18:01:45.495Z,23.50
2022-11-10T18:04:32.542Z,23.50
2022-11-10T18:07:18.918Z,23.50
2022-11-10T18:10:06.248Z,23.40
2022-11-10T18:12:52.877Z,23.40
2022-11-10T18:15:44.371Z,23.40
2022-11-10T18:18:31.298Z,23.40
2022-11-10T18:21:17.933Z,23.40
2022-11-10T18:24:04.674Z,23.40
2022-11-10T18:26:51.027Z,23.30
2022-11-10T18:29:37.602Z,23.30
2022-11-10T18:32:25.376Z,23.30
2022-11-10T18:35:12.202Z,23.30
2022-11-10T18:37:59.749Z,23.30
2022-11-10T18:40:46.395Z,23.30
2022-11-10T18:43:32.901Z,23.30
2022-11-10T18:46:19.584Z,23.20
2022-11-10T18:49:07.978Z,23.20
2022-11-10T18:51:54.655Z,23.20
2022-11-10T18:54:41.086Z,23.20
2022-11-10T18:57:27.566Z,23.20
2022-11-10T19:00:14.886Z,23.20
2022-11-10T19:03:01.343Z,23.20
2022-11-10T19:05:57.354Z,23.20
2022-11-10T19:08:45.639Z,23.10
2022-11-10T19:11:32.965Z,23.10
2022-11-10T19:14:23.014Z,23.10
2022-11-10T19:17:09.715Z,23.10
2022-11-10T19:19:56.936Z,23.10
2022-11-10T19:22:45.342Z,23.10
2022-11-10T19:25:32.605Z,23.10
2022-11-10T19:28:19.077Z,23.10
2022-11-10T19:31:07.362Z,23.10
2022-11-10T19:33:56.497Z,23.10
2022-11-10T19:36:43.190Z,23.10
2022-11-10T19:39:30.973Z,23.10
2022-11-10T19:42:17.655Z,23.00
2022-11-10T19:45:04.555Z,23.00
2022-11-10T19:47:52.165Z,23.00
2022-11-10T19:50:38.958Z,23.00
2022-11-10T19:53:25.820Z,23.00
2022-11-10T19:56:15.743Z,23.00
2022-11-10T19:59:02.320Z,23.00
2022-11-10T20:01:49.075Z,22.90
2022-11-10T20:04:55.878Z,22.90
2022-11-10T20:07:59.884Z,22.90
2022-11-10T20:10:47.115Z,22.90
2022-11-10T20:13:35.463Z,22.90
2022-11-10T20:16:22.469Z,22.90
2022-11-10T20:19:09.236Z,22.90
2022-11-10T20:21:55.694Z,22.90
2022-11-10T20:24:48.385Z,22.90
2022-11-10T20:27:37.590Z,22.90
2022-11-10T20:30:25.988Z,23.00
2022-11-10T20:33:12.631Z,23.00
2022-11-10T20:36:05.990Z,23.00
2022-11-10T20:38:53.871Z,23.00
2022-11-10T20:41:41.274Z,23.00
2022-11-10T20:44:28.196Z,23.00
2022-11-10T20:47:16.000Z,23.00
2022-11-10T20:50:02.866Z,23.00
2022-11-10T20:52:50.285Z,23.00
2022-11-10T20:55:53.114Z,23.00
2022-11-10T20:58:40.836Z,23.00
2022-11-10T21:01:27.808Z,23.10
2022-11-10T21:04:16.117Z,23.00
2022-11-10T21:07:02.942Z,23.10
2022-11-10T21:09:49.681Z,23.10
2022-11-10T21:12:51.770Z,23.10
2022-11-10T21:15:40.037Z,23.10
2022-11-10T21:18:28.693Z,23.10
2022-11-10T21:21:22.742Z,23.10
2022-11-10T21:24:10.954Z,23.10
2022-11-10T21:26:58.378Z,23.00
2022-11-10T21:29:45.525Z,23.00
2022-11-10T21:32:32.195Z,23.00
2022-11-10T21:35:18.913Z,23.00
2022-11-10T21:38:07.180Z,23.00
2022-11-10T21:40:53.988Z,23.00
2022-11-10T21:43:41.140Z,23.00
2022-11-10T21:46:28.228Z,23.00
2022-11-10T21:49:14.681Z,22.90
2022-11-10T21:52:01.202Z,22.90
2022-11-10T21:54:49.126Z,22.90
2022-11-10T21:57:36.041Z,22.90
2022-11-10T22:00:22.719Z,22.90
2022-11-10T22:03:09.468Z,22.90
2022-11-10T22:05:55.821Z,22.80
2022-11-10T22:08:44.044Z,22.80
2022-11-10T22:11:49.687Z,22.80
2022-11-10T22:14:53.687Z,22.80
2022-11-10T22:17:57.680Z,22.80
2022-11-10T22:20:44.466Z,22.70
2022-11-10T22:23:48.174Z,22.70
2022-11-10T22:26:36.281Z,22.70
2022-11-10T22:29:26.099Z,22.70
2022-11-10T22:32:15.649Z,22.70
2022-11-10T22:35:02.151Z,22.70
2022-11-10T22:37:48.693Z,22.70
2022-11-10T22:40:54.557Z,22.70
2022-11-10T22:44:00.337Z,22.70
2022-11-10T22:46:50.838Z,22.70
2022-11-10T22:49:37.297Z,22.60
2022-11-10T22:52:23.831Z,22.60
2022-11-10T22:55:10.567Z,22.60
2022-11-10T22:57:57.287Z,22.60
2022-11-10T23:00:46.566Z,22.60
2022-11-10T23:03:33.138Z,22.60
2022-11-10T23:06:20.447Z,22.60
2022-11-10T23:09:07.376Z,22.50
2022-11-10T23:11:54.181Z,22.60
2022-11-10T23:14:40.670Z,22.60
2022-11-10T23:17:28.487Z,22.50
2022-11-10T23:20:15.740Z,22.50
2022-11-10T23:23:02.595Z,22.50
2022-11-10T23:25:57.136Z,22.50
2022-11-10T23:28:44.207Z,22.50
2022-11-10T23:31:30.607Z,22.50
2022-11-10T23:34:18.621Z,22.50
2022-11-10T23:37:05.102Z,22.50
2022-11-10T23:39:51.683Z,22.50
2022-11-10T23:42:38.238Z,22.50
2022-11-10T23:45:29.760Z,22.50
2022-11-10T23:48:24.287Z,22.50
2022-11-10T23:51:14.435Z,22.50
2022-11-10T23:54:01.238Z,22.40
2022-11-10T23:56:48.004Z,22.50
2022-11-10T23:59:34.479Z,22.40
